Time;durP1;ratioP1;P1;durP2;ratioP2;P2;SDS_P1;SDS_P2;PMS_P1;PMS_P2;Temp;Humidity;BMP_temperature;BMP_pressure;BME280_temperature;BME280_humidity;BME280_pressure;Samples;Min_cycle;Max_cycle;Signal;HPM_P1;HPM_P2
2023/05/27 00:01:07;;;;;;;14.57;3.58;;;;;;;18.58;40.61;102486.91;5023813;27;99226;-71
2023/05/27 00:03:34;;;;;;;17.90;3.85;;;;;;;18.53;40.71;102488.88;5023055;27;98927;-71
2023/05/27 00:06:01;;;;;;;10.00;3.00;;;;;;;18.68;40.40;102483.81;5025392;27;96858;-72
2023/05/27 00:08:28;;;;;;;15.20;3.63;;;;;;;18.56;40.65;102488.78;5022822;27;96949;-71
2023/05/27 00:10:55;;;;;;;15.15;3.17;;;;;;;18.68;40.48;102493.63;5023682;27;98740;-71
2023/05/27 00:13:22;;;;;;;15.55;3.38;;;;;;;18.43;40.92;102490.19;5025588;27;99316;-71
2023/05/27 00:15:48;;;;;;;18.05;3.63;;;;;;;18.39;40.93;102485.88;5030227;27;98412;-70
2023/05/27 00:18:15;;;;;;;15.23;3.47;;;;;;;18.42;41.05;102486.66;5022058;27;96908;-70
2023/05/27 00:20:42;;;;;;;18.30;3.42;;;;;;;18.53;40.72;102487.06;5025069;27;102253;-70
2023/05/27 00:23:09;;;;;;;18.52;3.28;;;;;;;18.26;41.45;102483.72;5021707;27;101542;-69
2023/05/27 00:25:36;;;;;;;16.17;3.47;;;;;;;18.34;41.25;102488.75;5028022;27;96811;-70
2023/05/27 00:28:03;;;;;;;13.88;3.58;;;;;;;18.38;41.21;102486.84;5025616;27;96828;-69
2023/05/27 00:30:30;;;;;;;15.10;3.70;;;;;;;18.21;41.57;102492.84;5027183;27;99077;-70
2023/05/27 00:32:56;;;;;;;20.17;4.60;;;;;;;18.20;41.66;102483.97;5025148;27;98774;-70
2023/05/27 00:35:22;;;;;;;13.85;3.55;;;;;;;18.12;41.66;102486.06;5023603;27;96879;-69
2023/05/27 00:37:49;;;;;;;16.58;3.20;;;;;;;18.28;41.51;102489.88;5015317;27;98416;-70
2023/05/27 00:40:20;;;;;;;17.73;3.88;;;;;;;18.20;41.77;102485.75;5022331;27;99210;-69
2023/05/27 00:42:46;;;;;;;16.50;2.97;;;;;;;18.46;41.01;102488.25;5026186;27;98874;-69
2023/05/27 00:45:14;;;;;;;13.95;3.50;;;;;;;18.17;41.65;102486.78;5025648;27;97460;-70
2023/05/27 00:47:41;;;;;;;18.55;4.03;;;;;;;18.19;41.59;102484.00;5022524;27;97529;-70
2023/05/27 00:50:08;;;;;;;18.15;3.63;;;;;;;18.15;41.82;102483.28;5029900;27;100468;-69
2023/05/27 00:52:35;;;;;;;13.05;3.35;;;;;;;18.09;41.81;102490.66;5032547;27;97999;-70
2023/05/27 00:55:01;;;;;;;15.52;4.30;;;;;;;17.88;42.53;102484.34;5021390;27;96994;-70
2023/05/27 00:57:28;;;;;;;16.23;3.95;;;;;;;17.96;42.31;102486.72;5024588;27;96889;-70
2023/05/27 00:59:55;;;;;;;21.45;4.25;;;;;;;17.91;42.57;102487.78;5025272;27;99022;-70
2023/05/27 01:02:23;;;;;;;15.95;3.90;;;;;;;17.92;42.60;102481.50;5018435;27;97591;-71
2023/05/27 01:04:49;;;;;;;17.70;3.70;;;;;;;17.90;42.53;102480.69;5025662;27;96850;-71
2023/05/27 01:07:21;;;;;;;11.73;3.63;;;;;;;17.84;42.84;102477.38;5024494;27;96747;-72
2023/05/27 01:09:53;;;;;;;16.58;4.00;;;;;;;17.84;42.72;102477.38;5022481;27;100431;-72
2023/05/27 01:12:28;;;;;;;18.55;4.28;;;;;;;17.60;43.43;102476.47;5019294;27;99354;-71
2023/05/27 01:14:56;;;;;;;19.27;3.80;;;;;;;17.76;43.26;102480.34;5018192;27;97658;-72
2023/05/27 01:17:26;;;;;;;15.30;4.03;;;;;;;17.68;44.11;102485.09;5018481;27;97063;-71
2023/05/27 01:19:53;;;;;;;16.35;3.85;;;;;;;17.65;44.42;102481.69;5017538;27;99080;-71
2023/05/27 01:22:21;;;;;;;20.98;4.32;;;;;;;17.42;44.84;102475.34;5019836;27;99207;-71
2023/05/27 01:24:50;;;;;;;13.60;3.65;;;;;;;17.49;44.92;102476.00;5031154;27;97303;-70
2023/05/27 01:27:17;;;;;;;18.23;4.10;;;;;;;17.33;44.96;102474.81;5026878;27;96778;-71
2023/05/27 01:29:43;;;;;;;18.85;3.72;;;;;;;17.14;45.77;102480.81;5018831;27;97812;-70
2023/05/27 01:32:15;;;;;;;14.38;4.20;;;;;;;17.24;46.71;102483.16;5026803;27;101733;-71
2023/05/27 01:34:53;;;;;;;15.68;3.42;;;;;;;17.10;46.00;102479.19;5022890;27;99369;-70
2023/05/27 01:37:22;;;;;;;14.20;3.47;;;;;;;17.05;46.66;102483.81;5023408;27;100148;-71
2023/05/27 01:39:52;;;;;;;12.93;3.47;;;;;;;17.09;47.05;102477.44;5025047;27;99474;-72
2023/05/27 01:42:20;;;;;;;12.13;3.60;;;;;;;16.98;47.69;102470.75;5024693;27;99224;-71
2023/05/27 01:44:47;;;;;;;13.48;3.67;;;;;;;16.91;47.86;102471.88;5020327;27;96921;-71
2023/05/27 01:47:13;;;;;;;21.13;4.32;;;;;;;16.93;47.66;102464.69;5028370;27;96807;-71
2023/05/27 01:49:40;;;;;;;13.52;3.90;;;;;;;16.92;47.53;102468.28;5018362;27;99444;-71
2023/05/27 01:52:08;;;;;;;21.88;3.78;;;;;;;16.61;48.41;102463.97;5016154;27;99937;-71
2023/05/27 01:54:35;;;;;;;15.52;3.70;;;;;;;16.83;48.03;102464.13;5016964;27;97614;-71
2023/05/27 01:57:03;;;;;;;17.05;3.92;;;;;;;16.62;48.79;102465.72;5019547;27;97880;-71
2023/05/27 01:59:29;;;;;;;14.60;3.83;;;;;;;16.69;48.95;102461.03;5020832;27;99024;-72
2023/05/27 02:01:55;;;;;;;13.35;4.22;;;;;;;16.73;48.63;102460.03;5024361;27;101750;-70
2023/05/27 02:04:22;;;;;;;19.55;4.35;;;;;;;16.87;47.54;102459.56;5015372;27;96917;-70
2023/05/27 02:06:48;;;;;;;12.82;3.85;;;;;;;16.79;47.22;102458.94;5021415;27;97041;-72
2023/05/27 02:09:15;;;;;;;17.08;3.88;;;;;;;16.72;47.38;102464.50;5025953;27;99154;-71
2023/05/27 02:11:41;;;;;;;16.48;3.92;;;;;;;16.86;47.16;102457.81;5025117;27;98818;-71
2023/05/27 02:14:09;;;;;;;23.30;4.43;;;;;;;17.07;46.42;102459.72;5022992;27;97191;-71
2023/05/27 02:16:36;;;;;;;12.93;3.55;;;;;;;17.00;46.29;102460.88;5018792;27;96947;-70
2023/05/27 02:19:04;;;;;;;17.70;4.38;;;;;;;16.69;47.01;102459.25;5016613;27;99221;-71
2023/05/27 02:21:30;;;;;;;16.83;4.13;;;;;;;17.01;46.40;102462.59;5019732;27;99079;-72
2023/05/27 02:23:57;;;;;;;17.60;3.80;;;;;;;17.11;46.11;102464.03;5020374;27;97011;-72
2023/05/27 02:26:23;;;;;;;19.60;4.53;;;;;;;17.06;46.18;102461.53;5025189;27;96883;-71
2023/05/27 02:28:50;;;;;;;15.10;4.47;;;;;;;17.11;45.96;102459.56;5022252;27;99431;-71
2023/05/27 02:31:17;;;;;;;18.20;4.38;;;;;;;17.16;45.78;102456.72;5022235;27;99320;-71
2023/05/27 02:33:44;;;;;;;11.75;3.55;;;;;;;17.31;45.26;102456.19;5026590;27;97045;-71
2023/05/27 02:36:11;;;;;;;12.95;3.70;;;;;;;17.38;45.13;102456.81;5019036;27;96837;-72
2023/05/27 02:38:38;;;;;;;15.38;4.32;;;;;;;17.24;45.44;102453.78;5021176;27;100310;-72
2023/05/27 02:41:04;;;;;;;17.80;3.97;;;;;;;17.24;45.66;102461.81;5012197;27;99085;-72
2023/05/27 02:43:31;;;;;;;14.65;4.07;;;;;;;16.89;46.55;102463.03;5022773;27;97750;-71
2023/05/27 02:45:57;;;;;;;14.77;3.72;;;;;;;16.86;47.40;102461.38;5017493;27;97025;-71
2023/05/27 02:48:25;;;;;;;20.38;4.57;;;;;;;16.71;48.84;102464.53;5019351;27;98801;-71
2023/05/27 02:50:53;;;;;;;19.08;4.43;;;;;;;16.56;49.50;102467.69;5016180;27;99063;-72
2023/05/27 02:53:19;;;;;;;15.65;3.85;;;;;;;16.47;49.93;102462.66;5023443;27;96909;-73
2023/05/27 02:55:46;;;;;;;18.38;5.18;;;;;;;16.46;50.06;102468.94;5022109;27;97050;-72
2023/05/27 02:58:12;;;;;;;15.80;3.65;;;;;;;16.13;51.55;102469.09;5021269;27;99448;-72
2023/05/27 03:00:41;;;;;;;16.00;3.72;;;;;;;16.04;51.91;102477.34;5015896;27;99213;-72
2023/05/27 03:03:07;;;;;;;18.35;4.47;;;;;;;16.19;51.57;102486.69;5026779;27;96891;-72
2023/05/27 03:05:35;;;;;;;12.60;3.38;;;;;;;16.01;52.06;102477.47;5026599;27;96904;-72
2023/05/27 03:08:02;;;;;;;16.92;4.60;;;;;;;16.10;51.76;102478.97;5025434;27;99263;-72
2023/05/27 03:10:29;;;;;;;16.80;4.35;;;;;;;16.12;51.98;102478.00;5023403;27;99187;-72
2023/05/27 03:12:55;;;;;;;18.23;4.07;;;;;;;16.05;51.80;102476.44;5023158;27;98703;-72
2023/05/27 03:15:22;;;;;;;19.13;4.45;;;;;;;16.05;51.97;102473.78;5025560;27;96948;-72
2023/05/27 03:17:48;;;;;;;16.08;4.20;;;;;;;15.88;52.25;102481.44;5028715;27;99343;-72
2023/05/27 03:20:16;;;;;;;18.83;4.15;;;;;;;15.97;51.26;102467.81;5027609;27;99750;-72
2023/05/27 03:22:44;;;;;;;14.35;3.90;;;;;;;16.11;50.80;102478.03;5021791;27;97376;-70
2023/05/27 03:25:11;;;;;;;15.73;4.35;;;;;;;16.32;49.97;102472.03;5027958;27;96785;-70
2023/05/27 03:27:37;;;;;;;17.70;4.55;;;;;;;16.59;48.94;102467.59;5025863;27;99276;-70
2023/05/27 03:30:05;;;;;;;18.20;4.53;;;;;;;16.66;48.63;102469.19;5024704;27;97770;-71
2023/05/27 03:32:32;;;;;;;16.20;4.55;;;;;;;16.62;48.29;102475.53;5022538;27;96971;-71
2023/05/27 03:34:58;;;;;;;14.63;4.40;;;;;;;16.81;47.62;102473.09;5029497;27;96878;-71
2023/05/27 03:37:24;;;;;;;14.90;4.20;;;;;;;17.09;46.96;102468.56;5028002;27;99133;-71
2023/05/27 03:39:52;;;;;;;20.33;4.53;;;;;;;17.11;46.53;102478.28;5023535;27;98569;-72
2023/05/27 03:42:19;;;;;;;15.75;4.50;;;;;;;17.38;46.06;102473.72;5027374;27;96929;-77
2023/05/27 03:44:45;;;;;;;15.68;4.70;;;;;;;17.24;46.28;102475.16;5022922;27;99799;-76
2023/05/27 03:47:12;;;;;;;17.45;5.10;;;;;;;17.39;45.84;102475.44;5027932;27;98993;-76
2023/05/27 03:49:38;;;;;;;17.77;4.75;;;;;;;17.27;46.07;102467.00;5021925;27;99203;-77
2023/05/27 03:52:06;;;;;;;19.02;5.07;;;;;;;17.23;46.21;102473.41;5020670;27;96856;-75
2023/05/27 03:54:32;;;;;;;17.90;4.93;;;;;;;17.44;45.79;102470.84;5027776;27;97604;-76
2023/05/27 03:57:01;;;;;;;18.50;4.57;;;;;;;17.37;45.88;102481.81;5023255;27;99690;-76
2023/05/27 03:59:27;;;;;;;15.35;4.07;;;;;;;17.39;45.93;102479.94;5018964;27;98810;-76
2023/05/27 04:01:53;;;;;;;19.00;4.85;;;;;;;17.26;46.09;102478.66;5020380;27;96851;-76
2023/05/27 04:04:20;;;;;;;16.65;4.57;;;;;;;17.42;45.75;102479.81;5024835;27;97634;-76
2023/05/27 04:06:46;;;;;;;14.75;4.45;;;;;;;17.52;45.63;102481.25;5024766;27;98928;-76
2023/05/27 04:09:13;;;;;;;18.40;4.45;;;;;;;17.57;45.29;102484.63;5023758;27;98116;-75
2023/05/27 04:11:39;;;;;;;16.95;4.25;;;;;;;17.33;46.30;102491.72;5021999;27;96808;-75
2023/05/27 04:14:07;;;;;;;12.15;4.40;;;;;;;17.28;46.45;102490.13;5025839;27;96853;-75
2023/05/27 04:16:34;;;;;;;15.43;4.43;;;;;;;17.28;46.14;102487.47;5020437;27;98424;-75
2023/05/27 04:19:01;;;;;;;15.02;4.00;;;;;;;17.07;46.97;102484.63;5028878;27;99175;-77
2023/05/27 04:21:27;;;;;;;12.45;4.45;;;;;;;17.06;47.09;102493.59;5017332;27;98729;-78
2023/05/27 04:23:54;;;;;;;16.42;4.60;;;;;;;17.35;46.35;102495.22;5023527;27;97519;-77
2023/05/27 04:26:20;;;;;;;19.65;4.47;;;;;;;17.35;46.46;102495.22;5025018;27;99455;-77
2023/05/27 04:28:47;;;;;;;14.98;4.53;;;;;;;17.82;45.28;102496.16;5022468;27;99836;-77
2023/05/27 04:31:15;;;;;;;16.02;4.47;;;;;;;18.15;44.41;102498.44;5031759;27;97017;-77
2023/05/27 04:33:42;;;;;;;16.38;4.20;;;;;;;18.05;44.46;102503.28;5030242;27;96901;-76
2023/05/27 04:36:09;;;;;;;18.58;5.30;;;;;;;18.04;44.57;102504.25;5019676;27;99215;-76
2023/05/27 04:38:35;;;;;;;19.30;4.82;;;;;;;18.25;43.81;102498.03;5026461;27;98739;-76
2023/05/27 04:41:03;;;;;;;19.30;5.28;;;;;;;18.38;43.75;102495.72;5032385;27;96863;-76
2023/05/27 04:43:30;;;;;;;17.70;4.43;;;;;;;18.45;43.58;102502.56;5026537;27;96805;-77
2023/05/27 04:45:59;;;;;;;15.45;4.20;;;;;;;18.49;43.66;102498.84;5020995;27;99125;-76
2023/05/27 04:48:27;;;;;;;18.05;4.60;;;;;;;18.60;43.14;102504.66;5033790;27;98918;-75
2023/05/27 04:50:53;;;;;;;20.15;4.18;;;;;;;18.76;43.10;102504.03;5025373;27;98277;-77
2023/05/27 04:53:21;;;;;;;16.00;4.30;;;;;;;18.77;42.88;102503.09;5017636;27;96791;-75
2023/05/27 04:55:47;;;;;;;18.13;4.22;;;;;;;18.98;42.67;102502.16;5022108;27;99017;-75
2023/05/27 04:58:14;;;;;;;21.08;4.82;;;;;;;19.08;42.40;102492.81;5025218;27;97613;-75
2023/05/27 05:00:49;;;;;;;15.93;4.47;;;;;;;19.08;42.46;102492.81;5020882;27;96765;-74
2023/05/27 05:03:20;;;;;;;19.27;4.40;;;;;;;19.54;41.66;102490.81;5027644;27;98688;-72
2023/05/27 05:05:52;;;;;;;17.15;4.10;;;;;;;19.94;40.86;102485.34;5018399;27;99017;-71
2023/05/27 05:08:18;;;;;;;17.48;4.35;;;;;;;21.19;38.64;102485.38;5031904;27;99117;-71
2023/05/27 05:10:47;;;;;;;16.00;4.18;;;;;;;21.65;36.70;102478.41;5022813;27;96827;-70
2023/05/27 05:13:14;;;;;;;15.85;4.45;;;;;;;22.32;35.44;102482.72;5029119;27;96866;-71
2023/05/27 05:15:43;;;;;;;15.30;3.97;;;;;;;22.49;35.07;102487.13;5027726;27;98184;-71
2023/05/27 05:18:10;;;;;;;19.08;4.60;;;;;;;23.66;33.43;102480.03;5018473;27;98813;-71
2023/05/27 05:20:36;;;;;;;13.50;3.40;;;;;;;23.13;33.58;102483.34;5021390;27;98562;-71
2023/05/27 05:23:04;;;;;;;18.52;4.10;;;;;;;22.62;33.77;102480.09;5024960;27;97000;-71
2023/05/27 05:25:35;;;;;;;20.25;4.38;;;;;;;21.71;35.48;102482.56;5022888;27;98973;-71
2023/05/27 05:28:01;;;;;;;16.48;4.57;;;;;;;21.04;36.50;102481.63;5023129;27;98991;-73
2023/05/27 05:30:27;;;;;;;16.15;4.35;;;;;;;21.03;36.92;102479.88;5016568;27;97119;-72
2023/05/27 05:32:54;;;;;;;17.98;4.00;;;;;;;20.55;37.33;102487.75;5022185;27;98699;-72
2023/05/27 05:35:20;;;;;;;14.25;3.80;;;;;;;20.86;37.60;102495.16;5024612;27;99621;-71
2023/05/27 05:37:46;;;;;;;14.32;3.85;;;;;;;20.77;37.34;102490.22;5023396;27;98922;-72
2023/05/27 05:40:14;;;;;;;11.50;3.47;;;;;;;20.85;37.34;102488.03;5023216;27;96818;-73
2023/05/27 05:42:41;;;;;;;16.70;3.92;;;;;;;20.98;36.74;102487.34;5021979;27;96996;-73
2023/05/27 05:45:08;;;;;;;12.38;3.55;;;;;;;20.86;37.00;102487.97;5030806;27;99025;-71
2023/05/27 05:47:35;;;;;;;10.30;3.40;;;;;;;21.02;36.96;102494.28;5021276;27;99413;-72
2023/05/27 05:50:01;;;;;;;9.52;3.17;;;;;;;21.08;35.78;102493.94;5018596;27;96901;-73
2023/05/27 05:52:27;;;;;;;15.02;3.33;;;;;;;21.15;35.72;102494.50;5018000;27;97289;-72
2023/05/27 05:54:54;;;;;;;15.82;2.92;;;;;;;21.08;36.04;102487.72;5020326;27;98905;-72
2023/05/27 05:57:21;;;;;;;12.25;3.47;;;;;;;21.01;35.77;102492.53;5018980;27;99164;-72
2023/05/27 05:59:48;;;;;;;11.10;3.17;;;;;;;21.19;35.17;102492.56;5024744;27;96842;-72
2023/05/27 06:02:14;;;;;;;14.52;3.30;;;;;;;21.23;35.29;102486.06;5016462;27;97159;-71
2023/05/27 06:04:40;;;;;;;8.90;2.75;;;;;;;21.22;34.74;102495.09;5008089;27;99451;-72
2023/05/27 06:07:07;;;;;;;8.80;2.95;;;;;;;21.32;34.48;102490.97;5019561;27;99260;-72
2023/05/27 06:09:33;;;;;;;8.57;2.50;;;;;;;21.17;33.75;102498.03;5024877;27;97461;-71
2023/05/27 06:12:00;;;;;;;19.10;3.40;;;;;;;21.30;33.89;102495.56;5023084;27;96793;-71
2023/05/27 06:14:27;;;;;;;11.27;3.00;;;;;;;21.32;33.76;102493.66;5023489;27;99044;-72
2023/05/27 06:16:53;;;;;;;12.23;3.20;;;;;;;21.64;33.48;102500.00;5023796;27;101836;-72
2023/05/27 06:19:20;;;;;;;7.47;2.03;;;;;;;21.70;31.60;102494.28;5018214;27;98924;-72
2023/05/27 06:21:46;;;;;;;9.60;3.83;;;;;;;21.82;30.79;102499.88;5015123;27;97285;-71
2023/05/27 06:24:13;;;;;;;7.25;2.25;;;;;;;21.55;31.20;102495.09;5018941;27;97640;-72
2023/05/27 06:26:39;;;;;;;5.50;1.13;;;;;;;21.83;29.94;102498.91;5019316;27;98434;-72
2023/05/27 06:29:06;;;;;;;5.50;1.50;;;;;;;21.94;29.84;102508.22;5024555;27;96717;-72
2023/05/27 06:31:33;;;;;;;3.40;1.17;;;;;;;22.02;29.52;102503.31;5021904;27;96947;-72
2023/05/27 06:34:04;;;;;;;4.95;1.20;;;;;;;21.96;27.96;102503.66;5019850;27;99183;-72
2023/05/27 06:36:30;;;;;;;3.42;0.90;;;;;;;21.68;28.34;102501.56;5017931;27;98020;-74
2023/05/27 06:39:04;;;;;;;3.15;1.10;;;;;;;22.04;27.52;102506.78;5030116;27;96912;-73
2023/05/27 06:41:30;;;;;;;6.50;2.50;;;;;;;22.51;27.46;102506.78;5021656;27;96963;-72
2023/05/27 06:44:01;;;;;;;5.18;1.35;;;;;;;22.76;27.31;102506.25;5028238;27;101866;-73
2023/05/27 06:46:31;;;;;;;4.00;1.10;;;;;;;22.95;26.15;102504.19;5022420;27;99345;-73
2023/05/27 06:49:00;;;;;;;5.35;0.90;;;;;;;23.14;24.90;102503.94;5027580;27;96929;-73
2023/05/27 06:51:36;;;;;;;2.28;0.90;;;;;;;23.32;24.79;102505.53;5020834;27;97780;-74
2023/05/27 06:54:08;;;;;;;2.73;1.03;;;;;;;23.20;24.75;102507.16;5017541;27;100291;-72
2023/05/27 06:56:38;;;;;;;3.40;1.05;;;;;;;23.29;24.88;102500.34;5028661;27;98322;-73
2023/05/27 06:59:05;;;;;;;3.78;1.00;;;;;;;23.28;24.36;102512.06;5030724;27;97126;-72
2023/05/27 07:01:31;;;;;;;4.95;1.00;;;;;;;23.80;23.81;102507.91;5025781;27;97812;-71
2023/05/27 07:03:59;;;;;;;4.45;1.23;;;;;;;23.53;24.04;102508.75;5025561;27;99055;-71
2023/05/27 07:06:26;;;;;;;2.20;0.82;;;;;;;23.50;24.13;102503.56;5022860;27;98957;-71
2023/05/27 07:08:52;;;;;;;4.93;1.00;;;;;;;23.01;24.29;102499.31;5018348;27;97200;-71
2023/05/27 07:11:19;;;;;;;3.67;1.20;;;;;;;23.33;24.27;102497.34;5022001;27;97400;-71
2023/05/27 07:13:45;;;;;;;2.90;1.00;;;;;;;22.85;24.76;102501.16;5022485;27;97716;-72
2023/05/27 07:16:11;;;;;;;2.05;0.80;;;;;;;23.38;23.87;102497.91;5022526;27;101564;-72
2023/05/27 07:18:38;;;;;;;2.95;1.13;;;;;;;23.67;23.59;102501.53;5020725;27;96827;-71
2023/05/27 07:21:06;;;;;;;3.10;0.88;;;;;;;23.44;23.41;102502.94;5016685;27;98838;-71
2023/05/27 07:23:32;;;;;;;2.92;1.20;;;;;;;23.20;23.25;102496.34;5016597;27;99952;-72
2023/05/27 07:25:59;;;;;;;4.03;1.48;;;;;;;23.35;23.65;102500.81;5020366;27;99624;-72
2023/05/27 07:28:26;;;;;;;3.13;1.08;;;;;;;23.62;23.80;102494.72;5016271;27;99314;-72
2023/05/27 07:30:53;;;;;;;3.10;1.08;;;;;;;23.87;23.45;102499.41;5017779;27;96927;-73
2023/05/27 07:33:20;;;;;;;3.80;1.27;;;;;;;23.26;23.88;102495.09;5016969;27;97844;-73
2023/05/27 07:35:46;;;;;;;3.03;1.02;;;;;;;23.68;23.52;102495.19;5012428;27;98995;-74
2023/05/27 07:38:14;;;;;;;5.82;0.80;;;;;;;23.51;22.97;102494.50;5026978;27;98437;-73
2023/05/27 07:40:40;;;;;;;4.85;0.93;;;;;;;23.47;22.63;102488.44;5029699;27;96963;-72
2023/05/27 07:43:07;;;;;;;2.92;1.00;;;;;;;23.88;22.38;102483.13;5017938;27;100106;-74
2023/05/27 07:45:33;;;;;;;2.55;1.00;;;;;;;23.71;22.99;102480.63;5031653;27;99026;-73
2023/05/27 07:47:59;;;;;;;1.90;0.80;;;;;;;23.99;22.67;102474.31;5030341;27;97118;-72
2023/05/27 07:50:26;;;;;;;3.35;1.00;;;;;;;24.18;22.28;102482.97;5025477;27;96932;-72
2023/05/27 07:52:52;;;;;;;2.00;0.93;;;;;;;24.25;22.97;102486.16;5025777;27;101817;-71
2023/05/27 07:55:20;;;;;;;2.88;1.15;;;;;;;23.80;23.11;102475.50;5023842;27;98795;-71
2023/05/27 07:57:47;;;;;;;4.25;1.15;;;;;;;23.57;23.49;102472.53;5024333;27;97671;-74
2023/05/27 08:00:14;;;;;;;7.35;1.20;;;;;;;23.83;23.40;102472.59;5031629;27;98874;-72
2023/05/27 08:02:41;;;;;;;3.60;1.00;;;;;;;23.50;22.91;102455.84;5026488;27;102927;-73
2023/05/27 08:05:09;;;;;;;2.83;0.73;;;;;;;23.53;23.19;102454.81;5030716;27;99256;-74
2023/05/27 08:07:35;;;;;;;2.92;0.90;;;;;;;23.26;23.19;102451.97;5018700;27;97439;-72
2023/05/27 08:10:01;;;;;;;3.35;0.80;;;;;;;23.66;22.17;102451.22;5014652;27;96887;-71
2023/05/27 08:12:29;;;;;;;2.85;1.17;;;;;;;24.05;22.24;102449.63;5008238;27;101754;-73
2023/05/27 08:14:56;;;;;;;1.50;0.82;;;;;;;23.93;22.22;102448.59;5010229;27;98049;-73
2023/05/27 08:17:22;;;;;;;3.40;0.77;;;;;;;24.13;21.63;102445.47;5013194;27;98826;-71
2023/05/27 08:19:49;;;;;;;3.70;1.33;;;;;;;24.18;21.77;102443.31;5011294;27;97135;-71
2023/05/27 08:22:15;;;;;;;1.63;0.70;;;;;;;24.58;21.20;102441.56;5015841;27;99210;-73
2023/05/27 08:24:42;;;;;;;4.45;0.77;;;;;;;23.89;21.66;102443.50;5021334;27;99204;-74
2023/05/27 08:27:16;;;;;;;1.27;0.70;;;;;;;24.15;21.73;102443.53;5019995;27;97743;-75
2023/05/27 08:29:44;;;;;;;2.58;1.05;;;;;;;24.62;21.23;102443.06;5023720;27;97622;-74
2023/05/27 08:32:13;;;;;;;2.25;0.68;;;;;;;24.63;21.38;102433.13;5026396;27;99024;-75
2023/05/27 08:34:41;;;;;;;1.65;0.93;;;;;;;23.76;22.43;102435.34;5025392;27;101944;-73
2023/05/27 08:37:07;;;;;;;2.97;0.80;;;;;;;24.03;22.22;102438.91;5012942;27;97643;-75
2023/05/27 08:39:34;;;;;;;1.17;0.70;;;;;;;24.18;21.46;102426.25;5023469;27;96944;-76
2023/05/27 08:42:02;;;;;;;3.00;0.77;;;;;;;23.90;21.57;102424.47;5027094;27;98905;-74
2023/05/27 08:44:28;;;;;;;16.75;1.73;;;;;;;23.72;22.06;102428.38;5024416;27;99000;-74
2023/05/27 08:46:57;;;;;;;3.83;0.80;;;;;;;23.86;22.09;102420.25;5026529;27;98768;-74
2023/05/27 08:49:23;;;;;;;5.13;1.40;;;;;;;24.21;21.73;102426.09;5027930;27;97153;-74
2023/05/27 08:51:51;;;;;;;2.03;0.73;;;;;;;24.53;21.17;102416.69;5027258;27;97689;-74
2023/05/27 08:54:18;;;;;;;0.88;0.80;;;;;;;24.20;21.79;102408.16;5022441;27;97583;-74
2023/05/27 08:56:46;;;;;;;7.00;1.15;;;;;;;24.59;21.00;102410.84;5030198;27;96872;-73
2023/05/27 08:59:12;;;;;;;3.30;0.70;;;;;;;24.62;21.26;102396.25;5026675;27;96821;-74
2023/05/27 09:01:40;;;;;;;2.47;1.10;;;;;;;24.53;21.30;102396.91;5027505;27;99175;-75
2023/05/27 09:04:08;;;;;;;6.65;3.20;;;;;;;24.03;21.21;102401.09;5024810;27;99483;-74
2023/05/27 09:06:34;;;;;;;3.33;1.38;;;;;;;24.75;21.34;102394.44;5019685;27;96873;-76
2023/05/27 09:09:01;;;;;;;4.28;1.15;;;;;;;24.64;21.38;102391.63;5007716;27;98286;-74
2023/05/27 09:11:30;;;;;;;3.33;1.10;;;;;;;24.59;21.38;102399.19;5018001;27;101858;-74
2023/05/27 09:13:57;;;;;;;4.63;1.05;;;;;;;24.72;20.94;102405.47;5023070;27;99384;-75
2023/05/27 09:16:24;;;;;;;2.08;0.77;;;;;;;24.36;20.96;102402.56;5012996;27;97482;-74
2023/05/27 09:18:51;;;;;;;1.80;0.70;;;;;;;23.94;21.65;102401.72;5019847;27;97493;-75
2023/05/27 09:21:18;;;;;;;7.22;1.00;;;;;;;24.23;20.87;102392.59;5013813;27;99537;-75
2023/05/27 09:23:46;;;;;;;6.97;1.13;;;;;;;24.32;21.12;102401.03;5014678;27;97414;-75
2023/05/27 09:26:14;;;;;;;3.70;1.20;;;;;;;24.48;20.54;102396.34;5015782;27;96784;-74
2023/05/27 09:28:40;;;;;;;3.42;1.10;;;;;;;24.12;21.11;102392.41;5013595;27;97980;-76
2023/05/27 09:31:08;;;;;;;3.33;1.08;;;;;;;23.79;21.41;102394.63;5022614;27;99037;-75
2023/05/27 09:33:36;;;;;;;2.55;1.10;;;;;;;24.41;21.07;102393.19;5026427;27;99271;-75
2023/05/27 09:36:04;;;;;;;3.38;0.90;;;;;;;24.35;21.04;102395.44;5014543;27;98346;-75
2023/05/27 09:38:32;;;;;;;3.63;1.10;;;;;;;24.14;20.43;102397.72;5019886;27;97097;-74
2023/05/27 09:40:59;;;;;;;2.47;1.35;;;;;;;24.59;20.46;102393.78;5023783;27;99091;-74
2023/05/27 09:43:25;;;;;;;1.30;0.90;;;;;;;24.52;19.88;102389.75;5018685;27;99602;-75
2023/05/27 09:45:57;;;;;;;1.45;0.90;;;;;;;24.23;19.63;102386.31;5014326;27;96887;-75
2023/05/27 09:48:24;;;;;;;3.55;1.00;;;;;;;24.20;20.05;102398.22;5018126;27;98070;-74
2023/05/27 09:50:53;;;;;;;4.10;1.70;;;;;;;24.01;20.30;102392.28;5023119;27;98188;-74
2023/05/27 09:53:21;;;;;;;3.38;1.10;;;;;;;24.46;21.00;102390.19;5010626;27;98903;-75
2023/05/27 09:55:49;;;;;;;2.67;1.15;;;;;;;24.68;20.97;102393.13;5013992;27;97160;-70
2023/05/27 09:58:16;;;;;;;1.45;0.82;;;;;;;24.76;20.07;102392.59;5016345;27;97689;-69
2023/05/27 10:00:45;;;;;;;2.97;1.38;;;;;;;24.63;19.40;102384.47;5020507;27;98999;-69
2023/05/27 10:03:13;;;;;;;2.28;1.00;;;;;;;24.78;19.52;102377.16;5015511;27;99055;-70
2023/05/27 10:05:41;;;;;;;1.70;0.93;;;;;;;24.62;20.05;102371.94;5016530;27;96938;-69
2023/05/27 10:08:07;;;;;;;1.85;0.98;;;;;;;24.32;19.97;102372.19;5021210;27;96952;-72
2023/05/27 10:10:34;;;;;;;2.22;0.93;;;;;;;24.57;19.67;102374.09;5019483;27;97989;-69
2023/05/27 10:13:03;;;;;;;1.60;0.85;;;;;;;24.35;20.11;102368.44;5014402;27;98826;-69
2023/05/27 10:15:31;;;;;;;1.63;0.90;;;;;;;24.48;19.93;102363.94;5010784;27;98192;-69
2023/05/27 10:17:59;;;;;;;2.80;1.05;;;;;;;24.67;19.71;102358.97;5017973;27;97115;-69
2023/05/27 10:20:28;;;;;;;1.88;1.02;;;;;;;24.59;19.82;102353.22;5021633;27;99046;-70
2023/05/27 10:22:54;;;;;;;2.60;0.90;;;;;;;24.67;19.95;102348.16;5022812;27;99883;-69
2023/05/27 10:25:20;;;;;;;5.03;1.20;;;;;;;24.78;20.15;102355.53;5016181;27;97136;-71
2023/05/27 10:27:48;;;;;;;2.35;1.00;;;;;;;24.20;19.83;102349.59;5022032;27;97644;-73
2023/05/27 10:30:16;;;;;;;1.15;0.68;;;;;;;24.35;19.88;102357.63;5014859;27;98038;-79
2023/05/27 10:32:44;;;;;;;3.97;2.10;;;;;;;24.32;19.80;102352.41;5018431;27;98742;-79
2023/05/27 10:35:11;;;;;;;1.38;0.93;;;;;;;24.14;19.62;102358.06;5017029;27;96781;-78
2023/05/27 10:37:37;;;;;;;1.90;0.90;;;;;;;24.14;19.41;102349.97;5021894;27;97226;-80
2023/05/27 10:40:07;;;;;;;12.23;1.30;;;;;;;24.13;20.06;102337.44;5025355;27;99044;-77
2023/05/27 10:42:33;;;;;;;10.27;1.40;;;;;;;24.50;19.51;102330.41;5024088;27;101495;-77
2023/05/27 10:45:05;;;;;;;3.13;1.95;;;;;;;24.31;19.31;102342.59;5023628;27;96820;-78
2023/05/27 10:47:36;;;;;;;3.58;1.00;;;;;;;24.68;19.16;102330.13;5024133;27;97016;-79
2023/05/27 10:50:12;;;;;;;2.97;1.40;;;;;;;24.74;18.83;102332.41;5027177;27;100132;-80
2023/05/27 10:52:39;;;;;;;3.97;1.20;;;;;;;24.83;19.03;102327.19;5026584;27;99367;-78
2023/05/27 10:55:06;;;;;;;1.30;0.98;;;;;;;25.07;19.31;102338.16;5026390;27;98168;-78
2023/05/27 10:57:33;;;;;;;2.35;1.25;;;;;;;25.05;19.06;102336.50;5029396;27;97171;-78
2023/05/27 11:00:08;;;;;;;3.38;1.20;;;;;;;25.20;18.89;102330.88;5023958;27;97968;-78
2023/05/27 11:02:38;;;;;;;3.58;1.25;;;;;;;25.11;18.60;102326.13;5024631;27;97785;-78
2023/05/27 11:05:14;;;;;;;3.20;1.38;;;;;;;25.23;18.44;102317.13;5019157;27;97485;-78
2023/05/27 11:07:41;;;;;;;2.58;1.30;;;;;;;25.25;18.86;102312.47;5023335;27;96987;-80
2023/05/27 11:10:09;;;;;;;1.92;1.55;;;;;;;25.20;18.74;102314.66;5028508;27;99257;-78
2023/05/27 11:12:36;;;;;;;1.33;1.10;;;;;;;25.23;19.00;102311.72;5025142;27;99107;-78
2023/05/27 11:15:03;;;;;;;2.05;1.10;;;;;;;25.07;19.36;102310.25;5026581;27;96663;-78
2023/05/27 11:17:30;;;;;;;2.80;1.67;;;;;;;24.99;19.13;102295.44;5027342;27;96831;-79
2023/05/27 11:19:58;;;;;;;2.38;1.45;;;;;;;24.91;19.90;102307.75;5016453;27;98895;-79